CYRB

Resolute Bay Airport

Resolute Bay, Canada
METAR CYRB 180800Z 32009KT 15SM -SN FEW046 BKN095 M32/M35 A2940 RMK SC1AS4 PCPN VRY LGT SLP970
Observed Flight Rules
Dec-18 @ 08:00 UTC (49 minutes ago) Visual Flight Rules
Wind Visibility Clouds Conditions
320° at 9 knots 15 miles
  • Few at 4,600' AGL
  • Broken at 9,500' AGL
  • Light Snow
Temperatures Readings
Current -32°C / -26°F
Dewpoint -35°C / -31°F
Humidity 75%
Altimeter 29.4" Hg
Pressure 997 hPa
Elevation 67
METAR CYRB 180800Z 32009KT 15SM -SN FEW046 BKN095 M32/M35 A2940 RMK SC1AS4 PCPN VRY LGT SLP970
Observed Flight Rules
Dec-18 @ 08:00 UTC
(49 minutes ago)
VFR
Wind Visibility
320° at 9 knots 15 miles
Clouds
  • Few at 4,600' AGL
  • Broken at 9,500' AGL
Conditions
  • Light Snow
Temperature Dewpoint
-32°C / -26°F -35°C / -31°F
Humidity Altimeter Pressure
75% 29.4" Hg 997 hPa